createdAt,value
2017-08-20T00:00:15.935Z,56.54
2017-08-20T00:00:56.413Z,56.35
2017-08-20T00:01:36.870Z,56.45
2017-08-20T00:02:17.318Z,56.35
2017-08-20T00:02:57.772Z,56.35
2017-08-20T00:03:38.229Z,56.05
2017-08-20T00:04:18.689Z,56.25
2017-08-20T00:04:59.125Z,56.35
2017-08-20T00:05:39.575Z,55.96
2017-08-20T00:06:20.036Z,56.25
2017-08-20T00:07:00.520Z,56.45
2017-08-20T00:07:40.976Z,56.35
2017-08-20T00:08:21.432Z,56.63
2017-08-20T00:09:01.884Z,56.54
2017-08-20T00:09:42.340Z,56.54
2017-08-20T00:10:22.800Z,56.63
2017-08-20T00:11:03.254Z,56.83
2017-08-20T00:11:43.701Z,56.63
2017-08-20T00:12:24.160Z,56.45
2017-08-20T00:13:04.615Z,56.83
2017-08-20T00:13:45.075Z,56.54
2017-08-20T00:14:25.534Z,56.54
2017-08-20T00:15:05.977Z,57.21
2017-08-20T00:15:46.433Z,56.93
2017-08-20T00:16:26.894Z,57.03
2017-08-20T00:17:07.351Z,56.93
2017-08-20T00:17:47.811Z,57.03
2017-08-20T00:18:28.290Z,57.03
2017-08-20T00:19:08.895Z,57.03
2017-08-20T00:19:49.360Z,57.03
2017-08-20T00:20:29.812Z,57.03
2017-08-20T00:21:10.268Z,57.03
2017-08-20T00:21:50.722Z,57.03
2017-08-20T00:22:31.180Z,57.03
2017-08-20T00:23:11.635Z,56.93
2017-08-20T00:23:52.083Z,56.93
2017-08-20T00:24:32.529Z,56.73
2017-08-20T00:25:12.985Z,56.93
2017-08-20T00:25:53.453Z,57.03
2017-08-20T00:26:33.901Z,56.73
2017-08-20T00:27:14.348Z,56.93
2017-08-20T00:27:54.808Z,56.83
2017-08-20T00:28:35.275Z,56.83
2017-08-20T00:29:15.740Z,56.73
2017-08-20T00:29:56.194Z,56.93
2017-08-20T00:30:36.663Z,56.9
2017-08-20T00:31:17.115Z,57.12
2017-08-20T00:31:57.575Z,57.03
2017-08-20T00:32:38.026Z,56.93
2017-08-20T00:33:18.477Z,56.83
2017-08-20T00:33:58.933Z,56.93
2017-08-20T00:34:39.380Z,56.93
2017-08-20T00:35:19.840Z,56.93
2017-08-20T00:36:00.290Z,57.12
2017-08-20T00:36:40.747Z,57.12
2017-08-20T00:37:21.204Z,57.12
2017-08-20T00:38:01.658Z,57.21
2017-08-20T00:38:42.116Z,57.12
2017-08-20T00:39:22.566Z,56.93
2017-08-20T00:40:03.028Z,56.93
2017-08-20T00:40:43.474Z,57.03
2017-08-20T00:41:23.922Z,57.12
2017-08-20T00:42:04.378Z,57.03
2017-08-20T00:42:44.828Z,56.83
2017-08-20T00:43:25.279Z,56.93
2017-08-20T00:44:05.732Z,56.73
2017-08-20T00:44:46.177Z,56.73
2017-08-20T00:45:26.622Z,56.83
2017-08-20T00:46:07.076Z,56.93
2017-08-20T00:46:47.533Z,57.03
2017-08-20T00:47:27.971Z,57.31
2017-08-20T00:48:08.435Z,57.41
2017-08-20T00:48:48.874Z,57.41
2017-08-20T00:49:29.332Z,57.51
2017-08-20T00:50:09.787Z,57.12
2017-08-20T00:50:50.233Z,57.19
2017-08-20T00:51:30.683Z,57.89
2017-08-20T00:52:11.139Z,57.89
2017-08-20T00:52:51.591Z,57.41
2017-08-20T00:53:32.044Z,57.79
2017-08-20T00:54:12.500Z,57.51
2017-08-20T00:54:52.968Z,57.79
2017-08-20T00:55:33.431Z,57.6
2017-08-20T00:56:13.878Z,57.7
2017-08-20T00:56:54.340Z,57.6
2017-08-20T00:57:34.801Z,57.67
2017-08-20T00:58:15.256Z,57.51
2017-08-20T00:58:55.709Z,57.51
2017-08-20T00:59:36.161Z,57.41
2017-08-20T01:00:16.611Z,57.31
2017-08-20T01:00:57.068Z,57.38
2017-08-20T01:01:37.525Z,57.41
2017-08-20T01:02:17.983Z,57.6
2017-08-20T01:02:58.456Z,57.48
2017-08-20T01:03:38.918Z,57.6
2017-08-20T01:04:19.374Z,57.7
2017-08-20T01:04:59.820Z,57.79
2017-08-20T01:05:40.279Z,57.79
2017-08-20T01:06:20.741Z,57.79
2017-08-20T01:07:01.191Z,57.51
2017-08-20T01:07:41.644Z,57.7
2017-08-20T01:08:22.095Z,57.89
2017-08-20T01:09:02.551Z,57.89
2017-08-20T01:09:43.062Z,57.99
2017-08-20T01:10:23.516Z,57.99
2017-08-20T01:11:03.959Z,57.89
2017-08-20T01:11:44.418Z,57.99
2017-08-20T01:12:24.874Z,58.09
2017-08-20T01:13:05.335Z,57.79
2017-08-20T01:13:45.778Z,57.87
2017-08-20T01:14:26.235Z,57.89
2017-08-20T01:15:06.694Z,57.99
2017-08-20T01:15:47.144Z,58.18
2017-08-20T01:16:27.602Z,57.99
2017-08-20T01:17:08.061Z,58.09
2017-08-20T01:17:48.537Z,58.15
2017-08-20T01:18:28.995Z,57.89
2017-08-20T01:19:09.445Z,57.96
2017-08-20T01:19:49.910Z,57.79
2017-08-20T01:20:30.354Z,57.77
2017-08-20T01:21:10.808Z,57.7
2017-08-20T01:21:51.265Z,57.89
2017-08-20T01:22:31.725Z,57.79
2017-08-20T01:23:12.182Z,57.89
2017-08-20T01:23:52.642Z,57.89
2017-08-20T01:24:33.090Z,57.7
2017-08-20T01:25:13.559Z,57.79
2017-08-20T01:25:54.018Z,57.87
2017-08-20T01:26:34.475Z,57.87
2017-08-20T01:27:14.930Z,57.79
2017-08-20T01:27:55.395Z,57.87
2017-08-20T01:28:35.850Z,57.89
2017-08-20T01:29:16.297Z,58.18
2017-08-20T01:29:56.758Z,57.89
2017-08-20T01:30:37.217Z,58.09
2017-08-20T01:31:17.681Z,57.89
2017-08-20T01:31:58.135Z,57.89
2017-08-20T01:32:38.592Z,57.89
2017-08-20T01:33:19.061Z,57.89
2017-08-20T01:33:59.513Z,57.77
2017-08-20T01:34:39.960Z,57.99
2017-08-20T01:35:20.414Z,58.37
2017-08-20T01:36:00.871Z,58.37
2017-08-20T01:36:41.324Z,58.09
2017-08-20T01:37:21.791Z,58.47
2017-08-20T01:38:02.255Z,58.37
2017-08-20T01:38:42.714Z,58.37
2017-08-20T01:39:23.199Z,58.35
2017-08-20T01:41:10.733Z,58.28
2017-08-20T01:41:51.182Z,58.28
2017-08-20T01:42:31.631Z,58.18
2017-08-20T01:43:12.091Z,58.15
2017-08-20T01:43:52.547Z,58.45
2017-08-20T01:44:32.996Z,58.18
2017-08-20T01:45:13.455Z,58.28
2017-08-20T01:45:53.909Z,58.37
2017-08-20T01:46:34.364Z,58.67
2017-08-20T01:47:14.819Z,58.67
2017-08-20T01:47:55.277Z,58.76
2017-08-20T01:48:35.735Z,58.76
2017-08-20T01:49:16.192Z,58.73
2017-08-20T01:49:56.636Z,58.86
2017-08-20T01:50:37.081Z,58.45
2017-08-20T01:51:17.532Z,58.54
2017-08-20T01:51:57.990Z,58.57
2017-08-20T01:52:38.437Z,58.54
2017-08-20T01:53:18.875Z,58.67
2017-08-20T01:53:59.328Z,58.67
2017-08-20T01:54:39.780Z,58.57
2017-08-20T01:55:20.229Z,58.57
2017-08-20T01:56:00.693Z,58.57
2017-08-20T01:56:41.151Z,58.47
2017-08-20T01:57:21.604Z,58.73
2017-08-20T01:58:02.061Z,58.57
2017-08-20T01:58:42.506Z,58.54
2017-08-20T01:59:22.957Z,58.57
2017-08-20T02:00:03.405Z,58.67
2017-08-20T02:00:43.858Z,58.54
2017-08-20T02:01:24.304Z,58.57
2017-08-20T02:02:04.766Z,58.54
2017-08-20T02:02:45.224Z,58.37
2017-08-20T02:03:25.707Z,58.28
2017-08-20T02:04:06.143Z,58.47
2017-08-20T02:04:46.601Z,58.35
2017-08-20T02:05:27.074Z,58.25
2017-08-20T02:06:07.514Z,58.15
2017-08-20T02:06:47.973Z,58.15
2017-08-20T02:07:28.432Z,58.47
2017-08-20T02:08:08.914Z,58.47
2017-08-20T02:08:49.372Z,58.86
2017-08-20T02:09:29.821Z,58.35
2017-08-20T02:10:10.300Z,58.83
2017-08-20T02:10:50.736Z,58.67
2017-08-20T02:11:31.197Z,58.95
2017-08-20T02:12:11.644Z,58.54
2017-08-20T02:12:52.085Z,58.64
2017-08-20T02:13:32.542Z,58.54
2017-08-20T02:14:13.004Z,58.64
2017-08-20T02:14:53.541Z,58.73
2017-08-20T02:15:34.003Z,58.64
2017-08-20T02:16:14.460Z,58.73
2017-08-20T02:16:54.923Z,58.83
2017-08-20T02:17:35.384Z,58.54
2017-08-20T02:18:15.825Z,58.93
2017-08-20T02:18:56.281Z,58.93
2017-08-20T02:19:36.719Z,59.12
2017-08-20T02:20:17.155Z,58.93
2017-08-20T02:20:57.627Z,59.22
2017-08-20T02:21:38.085Z,59.02
2017-08-20T02:22:18.537Z,58.73
2017-08-20T02:22:58.996Z,59.02
2017-08-20T02:23:39.452Z,59.22
2017-08-20T02:24:19.912Z,59.02
2017-08-20T02:25:00.363Z,59.31
2017-08-20T02:25:40.826Z,59.12
2017-08-20T02:26:21.283Z,59.22
2017-08-20T02:27:01.739Z,59.02
2017-08-20T02:27:42.197Z,59.02
2017-08-20T02:28:22.654Z,59.12
2017-08-20T02:29:03.112Z,59.22
2017-08-20T02:29:43.572Z,59.12
2017-08-20T02:30:24.028Z,59.12
2017-08-20T02:31:04.478Z,59.12
2017-08-20T02:31:44.933Z,59.25
2017-08-20T02:32:25.386Z,59.12
2017-08-20T02:33:05.843Z,59.12
2017-08-20T02:33:46.297Z,59.12
2017-08-20T02:34:26.752Z,58.93
2017-08-20T02:35:07.220Z,59.22
2017-08-20T02:35:47.665Z,59.12
2017-08-20T02:36:28.115Z,59.22
2017-08-20T02:37:08.569Z,59.22
2017-08-20T02:37:49.030Z,59.12
2017-08-20T02:38:29.488Z,59.41
2017-08-20T02:39:09.947Z,58.93
2017-08-20T02:39:50.402Z,59.02
2017-08-20T02:40:30.854Z,59.02
2017-08-20T02:41:11.311Z,58.93
2017-08-20T02:41:51.767Z,59.22
2017-08-20T02:42:32.216Z,58.93
2017-08-20T02:43:12.652Z,59.31
2017-08-20T02:43:53.113Z,59.22
2017-08-20T02:44:33.568Z,59.22
2017-08-20T02:45:14.028Z,59.02
2017-08-20T02:45:54.487Z,59.12
2017-08-20T02:46:34.952Z,59.12
2017-08-20T02:47:15.412Z,59.02
2017-08-20T02:47:55.862Z,58.93
2017-08-20T02:48:36.320Z,59.41
2017-08-20T02:49:16.778Z,59.22
2017-08-20T02:49:57.244Z,59.12
2017-08-20T02:50:37.698Z,59.12
2017-08-20T02:51:18.155Z,59.41
2017-08-20T02:51:58.604Z,59.41
2017-08-20T02:52:39.064Z,59.6
2017-08-20T02:53:19.520Z,59.41
2017-08-20T02:53:59.962Z,59.31
2017-08-20T02:54:40.419Z,59.41
2017-08-20T02:55:20.877Z,59.41
2017-08-20T02:56:01.332Z,59.6
2017-08-20T02:56:41.787Z,59.41
2017-08-20T02:57:22.248Z,59.6
2017-08-20T02:58:02.721Z,59.41
2017-08-20T02:58:43.191Z,59.6
2017-08-20T02:59:23.631Z,59.6
2017-08-20T03:00:04.080Z,59.41
2017-08-20T03:00:44.537Z,59.6
2017-08-20T03:01:25.004Z,59.22
2017-08-20T03:02:05.457Z,59.22
2017-08-20T03:02:45.909Z,59.41
2017-08-20T03:03:26.359Z,59.41
2017-08-20T03:04:06.817Z,59.41
2017-08-20T03:04:47.270Z,59.6
2017-08-20T03:05:27.728Z,59.6
2017-08-20T03:06:08.183Z,59.6
2017-08-20T03:06:48.657Z,59.6
2017-08-20T03:07:29.108Z,59.7
2017-08-20T03:08:09.563Z,59.6
2017-08-20T03:08:50.008Z,59.6
2017-08-20T03:09:30.462Z,59.6
2017-08-20T03:10:10.913Z,59.51
2017-08-20T03:10:51.366Z,59.6
2017-08-20T03:11:31.824Z,59.7
2017-08-20T03:12:12.278Z,59.7
2017-08-20T03:12:52.733Z,59.6
2017-08-20T03:13:33.194Z,59.6
2017-08-20T03:14:13.671Z,59.6
2017-08-20T03:14:54.122Z,59.51
2017-08-20T03:15:34.583Z,59.7
2017-08-20T03:16:15.028Z,59.51
2017-08-20T03:16:55.482Z,59.51
2017-08-20T03:17:35.934Z,59.6
2017-08-20T03:18:16.387Z,59.41
2017-08-20T03:18:56.846Z,59.41
2017-08-20T03:19:37.307Z,59.6
2017-08-20T03:20:17.766Z,59.41
2017-08-20T03:20:58.224Z,59.41
2017-08-20T03:21:38.673Z,59.22
2017-08-20T03:22:19.156Z,59.22
2017-08-20T03:22:59.602Z,59.38
2017-08-20T03:23:40.058Z,59.38
2017-08-20T03:24:20.512Z,59.58
2017-08-20T03:25:00.968Z,59.67
2017-08-20T03:25:41.422Z,59.67
2017-08-20T03:26:21.875Z,59.67
2017-08-20T03:27:02.329Z,59.67
2017-08-20T03:27:42.787Z,59.67
2017-08-20T03:28:23.360Z,59.58
2017-08-20T03:29:03.769Z,59.48
2017-08-20T03:29:44.219Z,59.67
2017-08-20T03:30:24.694Z,59.48
2017-08-20T03:31:05.143Z,59.38
2017-08-20T03:31:45.598Z,59.38
2017-08-20T03:32:26.056Z,59.09
2017-08-20T03:33:06.520Z,59.38
2017-08-20T03:33:46.966Z,59.38
2017-08-20T03:34:27.421Z,59.38
2017-08-20T03:35:07.880Z,59.09
2017-08-20T03:35:48.339Z,59.09
2017-08-20T03:36:28.795Z,59.09
2017-08-20T03:37:09.253Z,59.28
2017-08-20T03:37:49.713Z,59.19
2017-08-20T03:38:30.168Z,59.09
2017-08-20T03:39:10.624Z,59.09
2017-08-20T03:39:51.075Z,59.09
2017-08-20T03:40:31.527Z,59.09
2017-08-20T03:41:11.986Z,59.09
2017-08-20T03:41:52.433Z,59.09
2017-08-20T03:42:32.888Z,59.09
2017-08-20T03:43:13.324Z,59.09
2017-08-20T03:43:53.785Z,59.09
2017-08-20T03:44:34.233Z,59.28
2017-08-20T03:45:14.693Z,59.09
2017-08-20T03:45:55.158Z,59
2017-08-20T03:46:35.614Z,59.28
2017-08-20T03:47:16.074Z,59.19
2017-08-20T03:47:56.520Z,59.19
2017-08-20T03:48:36.975Z,59.28
2017-08-20T03:49:17.422Z,59.38
2017-08-20T03:49:57.880Z,59.19
2017-08-20T03:50:38.343Z,58.9
2017-08-20T03:51:18.790Z,59.19
2017-08-20T03:51:59.238Z,59.09
2017-08-20T03:52:39.693Z,58.8
2017-08-20T03:53:20.144Z,59.09
2017-08-20T03:54:00.593Z,59
2017-08-20T03:54:41.054Z,59
2017-08-20T03:55:21.497Z,59.28
2017-08-20T03:56:01.953Z,59.09
2017-08-20T03:56:42.409Z,59.19
2017-08-20T03:57:22.871Z,58.9
2017-08-20T03:58:03.325Z,59.09
2017-08-20T03:58:43.774Z,59
2017-08-20T03:59:24.232Z,59
2017-08-20T04:00:04.686Z,59.19
2017-08-20T04:00:45.142Z,59.19
2017-08-20T04:01:25.596Z,59.19
2017-08-20T04:02:06.057Z,59.19
2017-08-20T04:02:46.520Z,59.19
2017-08-20T04:03:26.971Z,59.22
2017-08-20T04:04:07.419Z,59.09
2017-08-20T04:04:47.866Z,59.09
2017-08-20T04:05:28.318Z,59
2017-08-20T04:06:08.776Z,59.19
2017-08-20T04:08:26.677Z,58.8
2017-08-20T04:09:07.133Z,58.8
2017-08-20T04:09:47.577Z,59.22
2017-08-20T04:10:28.025Z,58.9
2017-08-20T04:11:08.485Z,59.12
2017-08-20T04:11:48.940Z,59.22
2017-08-20T04:12:29.384Z,58.9
2017-08-20T04:13:09.839Z,58.7
2017-08-20T04:13:50.290Z,59.02
2017-08-20T04:14:30.742Z,59.12
2017-08-20T04:15:11.199Z,58.83
2017-08-20T04:15:51.641Z,59.12
2017-08-20T04:16:32.100Z,59.12
2017-08-20T04:17:12.542Z,59.12
2017-08-20T04:17:52.999Z,59.02
2017-08-20T04:18:33.453Z,59.12
2017-08-20T04:19:13.913Z,59.22
2017-08-20T04:19:54.359Z,59.12
2017-08-20T04:20:34.813Z,59.31
2017-08-20T04:21:15.269Z,59.22
2017-08-20T04:21:55.719Z,59.22
2017-08-20T04:22:36.180Z,59.12
2017-08-20T04:23:16.641Z,59.31
2017-08-20T04:23:57.099Z,59.22
2017-08-20T04:24:37.560Z,59.22
2017-08-20T04:25:18.022Z,59.22
2017-08-20T04:25:58.462Z,59.12
2017-08-20T04:26:38.920Z,59.22
2017-08-20T04:27:19.374Z,59.22
2017-08-20T04:27:59.835Z,59.22
2017-08-20T04:28:40.285Z,59.22
2017-08-20T04:29:20.742Z,59.12
2017-08-20T04:30:01.202Z,59.22
2017-08-20T04:30:41.658Z,59.12
2017-08-20T04:31:22.117Z,59.31
2017-08-20T04:32:02.576Z,59.31
2017-08-20T04:32:43.038Z,59.12
2017-08-20T04:33:23.511Z,59.12
2017-08-20T04:34:03.957Z,59.12
2017-08-20T04:34:44.412Z,58.73
2017-08-20T04:35:24.858Z,59.12
2017-08-20T04:36:05.313Z,58.93
2017-08-20T04:36:45.755Z,59.31
2017-08-20T04:37:26.191Z,59.12
2017-08-20T04:38:06.654Z,58.93
2017-08-20T04:38:47.136Z,58.73
2017-08-20T04:39:27.541Z,59.12
2017-08-20T04:40:07.983Z,58.93
2017-08-20T04:40:48.426Z,59.22
2017-08-20T04:41:28.875Z,59.12
2017-08-20T04:42:09.324Z,59.22
2017-08-20T04:42:49.768Z,59.02
2017-08-20T04:43:30.218Z,59.12
2017-08-20T04:44:10.650Z,59.22
2017-08-20T04:44:51.101Z,59.12
2017-08-20T04:45:31.562Z,59.6
2017-08-20T04:46:12.016Z,59.41
2017-08-20T04:46:52.484Z,59.6
2017-08-20T04:47:32.908Z,59.6
2017-08-20T04:48:13.358Z,59.51
2017-08-20T04:48:53.808Z,59.51
2017-08-20T04:49:34.261Z,59.51
2017-08-20T04:50:14.697Z,59.89
2017-08-20T04:50:55.161Z,59.51
2017-08-20T04:51:35.601Z,59.89
2017-08-20T04:52:16.054Z,59.6
2017-08-20T04:52:56.490Z,59.6
2017-08-20T04:53:36.948Z,59.7
2017-08-20T04:54:17.395Z,59.8
2017-08-20T04:54:57.851Z,59.8
2017-08-20T04:55:38.297Z,59.7
2017-08-20T04:56:18.748Z,59.6
2017-08-20T04:56:59.188Z,59.8
2017-08-20T04:57:39.646Z,59.6
2017-08-20T04:58:20.112Z,59.6
2017-08-20T04:59:00.569Z,59.99
2017-08-20T04:59:41.026Z,59.8
2017-08-20T05:00:21.500Z,59.89
2017-08-20T05:01:01.941Z,59.8
2017-08-20T05:01:42.424Z,59.99
2017-08-20T05:02:22.875Z,59.89
2017-08-20T05:03:03.301Z,59.89
2017-08-20T05:03:43.747Z,60.18
2017-08-20T05:04:24.218Z,59.89
2017-08-20T05:05:04.661Z,59.99
2017-08-20T05:05:45.095Z,59.8
2017-08-20T05:06:25.541Z,59.8
2017-08-20T05:07:06.011Z,59.7
2017-08-20T05:07:46.460Z,59.7
2017-08-20T05:08:26.898Z,59.8
2017-08-20T05:09:07.344Z,59.6
2017-08-20T05:09:47.789Z,59.6
2017-08-20T05:10:28.233Z,59.8
2017-08-20T05:11:08.680Z,59.99
2017-08-20T05:11:49.129Z,59.8
2017-08-20T05:12:29.584Z,59.7
2017-08-20T05:13:10.025Z,59.99
2017-08-20T05:13:50.474Z,59.7
2017-08-20T05:14:30.942Z,59.89
2017-08-20T05:15:11.397Z,59.6
2017-08-20T05:15:51.820Z,59.7
2017-08-20T05:16:32.285Z,59.89
2017-08-20T05:17:12.715Z,59.6
2017-08-20T05:17:53.161Z,59.89
2017-08-20T05:18:33.609Z,59.8
2017-08-20T05:19:14.081Z,59.83
2017-08-20T05:19:54.522Z,60.09
2017-08-20T05:20:34.974Z,59.8
2017-08-20T05:21:15.433Z,59.41
2017-08-20T05:21:55.884Z,59.8
2017-08-20T05:22:36.324Z,59.7
2017-08-20T05:23:16.776Z,59.8
2017-08-20T05:23:57.222Z,59.7
2017-08-20T05:24:37.670Z,59.41
2017-08-20T05:25:18.104Z,59.89
2017-08-20T05:25:58.535Z,59.8
2017-08-20T05:26:38.987Z,59.6
2017-08-20T05:27:19.429Z,59.7
2017-08-20T05:27:59.881Z,59.7
2017-08-20T05:28:40.335Z,59.7
2017-08-20T05:29:20.783Z,59.8
2017-08-20T05:30:01.250Z,59.51
2017-08-20T05:30:41.683Z,59.89
2017-08-20T05:31:22.131Z,60.09
2017-08-20T05:32:02.572Z,59.51
2017-08-20T05:32:43.034Z,59.89
2017-08-20T05:33:23.537Z,59.89
2017-08-20T05:34:03.934Z,59.8
2017-08-20T05:34:44.392Z,59.8
2017-08-20T05:35:24.844Z,59.7
2017-08-20T05:36:05.295Z,59.8
2017-08-20T05:36:45.753Z,59.99
2017-08-20T05:37:26.221Z,59.8
2017-08-20T05:38:06.675Z,59.7
2017-08-20T05:38:47.162Z,59.51
2017-08-20T05:39:27.597Z,59.6
2017-08-20T05:40:08.049Z,59.7
2017-08-20T05:40:48.504Z,59.7
2017-08-20T05:41:28.962Z,59.6
2017-08-20T05:42:09.412Z,59.7
2017-08-20T05:42:49.871Z,59.89
2017-08-20T05:43:30.318Z,59.6
2017-08-20T05:44:10.770Z,59.89
2017-08-20T05:44:51.216Z,59.99
2017-08-20T05:45:31.667Z,59.6
2017-08-20T05:46:12.135Z,59.51
2017-08-20T05:46:52.587Z,59.51
2017-08-20T05:47:33.042Z,59.8
2017-08-20T05:48:13.510Z,59.6
2017-08-20T05:48:53.998Z,59.7
2017-08-20T05:49:34.449Z,59.8
2017-08-20T05:50:14.899Z,59.41
2017-08-20T05:50:55.334Z,59.41
2017-08-20T05:51:35.778Z,59.7
2017-08-20T05:52:16.216Z,59.7
2017-08-20T05:52:56.672Z,59.7
2017-08-20T05:53:37.129Z,59.6
2017-08-20T05:55:29.735Z,59.41
2017-08-20T05:56:10.200Z,59.41
2017-08-20T05:56:50.650Z,59.22
2017-08-20T05:57:31.102Z,59.02
2017-08-20T05:58:11.534Z,59.02
2017-08-20T05:58:51.986Z,59.31
2017-08-20T05:59:32.460Z,59.22
2017-08-20T06:00:12.911Z,59.02
2017-08-20T06:00:53.355Z,59.02
2017-08-20T06:01:33.793Z,58.93
2017-08-20T06:02:14.233Z,58.93
2017-08-20T06:02:54.695Z,59.12
2017-08-20T06:03:35.147Z,59.22
2017-08-20T06:04:15.600Z,59.12
2017-08-20T06:04:56.041Z,59.12
2017-08-20T06:05:36.491Z,59.31
2017-08-20T06:06:16.955Z,59.12
2017-08-20T06:06:57.414Z,59.12
2017-08-20T06:07:37.856Z,59.12
2017-08-20T06:08:18.317Z,59.22
2017-08-20T06:08:58.762Z,59.22
2017-08-20T06:09:39.227Z,59.02
2017-08-20T06:10:19.684Z,59.19
2017-08-20T06:11:00.147Z,59.09
2017-08-20T06:11:40.607Z,59.09
2017-08-20T06:12:21.059Z,59.19
2017-08-20T06:13:01.519Z,59.09
2017-08-20T06:13:41.969Z,59.19
2017-08-20T06:14:22.405Z,59.19
2017-08-20T06:15:02.865Z,59.09
2017-08-20T06:15:43.395Z,59
2017-08-20T06:16:23.835Z,59
2017-08-20T06:17:04.226Z,59.28
2017-08-20T06:17:44.685Z,58.51
2017-08-20T06:18:25.114Z,58.8
2017-08-20T06:19:05.562Z,58.7
2017-08-20T06:19:46.007Z,58.51
2017-08-20T06:20:26.511Z,58.42
2017-08-20T06:21:06.966Z,58.51
2017-08-20T06:21:47.419Z,58.7
2017-08-20T06:22:27.873Z,58.8
2017-08-20T06:23:08.318Z,58.9
2017-08-20T06:23:48.814Z,59.19
2017-08-20T06:24:29.265Z,58.7
2017-08-20T06:25:09.713Z,58.9
2017-08-20T06:25:50.170Z,58.8
2017-08-20T06:26:30.628Z,58.7
2017-08-20T06:27:11.080Z,58.7
2017-08-20T06:27:51.548Z,58.61
2017-08-20T06:28:32.002Z,58.61
2017-08-20T06:29:12.458Z,58.9
2017-08-20T06:29:52.913Z,58.61
2017-08-20T06:30:33.365Z,58.61
2017-08-20T06:31:13.809Z,58.42
2017-08-20T06:31:54.252Z,58.9
2017-08-20T06:32:34.705Z,58.45
2017-08-20T06:33:15.174Z,58.45
2017-08-20T06:33:55.607Z,58.15
2017-08-20T06:34:36.050Z,58.35
2017-08-20T06:35:16.520Z,58.25
2017-08-20T06:35:56.950Z,58.54
2017-08-20T06:36:37.408Z,58.42
2017-08-20T06:37:17.854Z,58.64
2017-08-20T06:37:58.309Z,58.64
2017-08-20T06:38:38.783Z,58.54
2017-08-20T06:39:19.249Z,58.83
2017-08-20T06:39:59.783Z,58.64
2017-08-20T06:40:40.261Z,58.25
2017-08-20T06:41:20.718Z,58.45
2017-08-20T06:42:01.234Z,58.45
2017-08-20T06:42:41.698Z,58.25
2017-08-20T06:43:22.154Z,58.15
2017-08-20T06:44:02.596Z,58.15
2017-08-20T06:44:43.049Z,58.25
2017-08-20T06:45:23.528Z,58.35
2017-08-20T06:46:03.987Z,58.35
2017-08-20T06:46:44.449Z,58.25
2017-08-20T06:47:24.913Z,58.45
2017-08-20T06:48:05.360Z,58.25
2017-08-20T06:48:45.812Z,58.35
2017-08-20T06:49:26.244Z,58.35
2017-08-20T06:50:06.699Z,58.25
2017-08-20T06:50:47.161Z,58.45
2017-08-20T06:51:27.616Z,58.25
2017-08-20T06:52:08.071Z,57.77
2017-08-20T06:52:48.542Z,57.87
2017-08-20T06:53:28.993Z,57.64
2017-08-20T06:54:09.447Z,57.87
2017-08-20T06:54:49.897Z,58.15
2017-08-20T06:55:30.346Z,57.93
2017-08-20T06:56:10.799Z,57.74
2017-08-20T06:56:51.259Z,57.87
2017-08-20T06:57:31.709Z,57.54
2017-08-20T06:58:12.164Z,58.22
2017-08-20T06:58:52.640Z,58.22
2017-08-20T06:59:33.098Z,58.42
2017-08-20T07:00:13.555Z,58.12
2017-08-20T07:00:54.018Z,57.93
2017-08-20T07:01:34.485Z,57.96
2017-08-20T07:02:14.928Z,57.67
2017-08-20T07:02:55.384Z,57.87
2017-08-20T07:03:35.844Z,57.67
2017-08-20T07:04:16.307Z,57.77
2017-08-20T07:04:56.758Z,57.96
2017-08-20T07:05:37.214Z,57.96
2017-08-20T07:06:17.662Z,57.67
2017-08-20T07:06:58.110Z,57.57
2017-08-20T07:07:38.580Z,57.87
2017-08-20T07:08:19.057Z,57.67
2017-08-20T07:08:59.482Z,57.7
2017-08-20T07:09:39.930Z,57.51
2017-08-20T07:10:20.384Z,57.51
2017-08-20T07:11:01.210Z,57.6
2017-08-20T07:11:41.612Z,57.89
2017-08-20T07:12:22.029Z,57.41
2017-08-20T07:13:02.430Z,56.83
2017-08-20T07:13:42.866Z,57.12
2017-08-20T07:14:23.264Z,57.31
2017-08-20T07:15:03.727Z,56.73
2017-08-20T07:15:44.160Z,56.83
2017-08-20T07:16:24.614Z,56.83
2017-08-20T07:17:05.042Z,57.24
2017-08-20T07:17:45.446Z,57.05
2017-08-20T07:18:25.838Z,56.67
2017-08-20T07:19:06.269Z,56.57
2017-08-20T07:19:46.713Z,56.47
2017-08-20T07:20:27.170Z,56.28
2017-08-20T07:21:07.629Z,56.28
2017-08-20T07:21:48.086Z,56.28
2017-08-20T07:22:28.729Z,56.28
2017-08-20T07:23:09.116Z,56.47
2017-08-20T07:23:49.597Z,56.18
2017-08-20T07:24:30.047Z,56.21
2017-08-20T07:25:10.510Z,56.11
2017-08-20T07:25:50.953Z,55.92
2017-08-20T07:26:32.366Z,55.82
2017-08-20T07:27:12.897Z,55.82
2017-08-20T07:27:53.332Z,55.63
2017-08-20T07:28:34.861Z,55.63
2017-08-20T07:29:15.310Z,55.82
2017-08-20T07:29:55.764Z,55.73
2017-08-20T07:30:36.442Z,55.73
2017-08-20T07:31:16.889Z,55.34
2017-08-20T07:31:57.356Z,55.53
2017-08-20T07:32:37.813Z,55.43
2017-08-20T07:33:18.271Z,55.43
2017-08-20T07:33:58.731Z,55.53
2017-08-20T07:34:39.179Z,55.34
2017-08-20T07:35:19.616Z,55.53
2017-08-20T07:36:00.627Z,54.95
2017-08-20T07:36:41.061Z,55.24
2017-08-20T07:37:21.509Z,54.95
2017-08-20T07:38:02.000Z,54.95
2017-08-20T07:38:42.467Z,54.88
2017-08-20T07:39:23.003Z,55.17
2017-08-20T07:40:03.462Z,55.07
2017-08-20T07:40:43.954Z,55.17
2017-08-20T07:41:24.400Z,54.88
2017-08-20T07:42:04.850Z,54.49
2017-08-20T07:42:45.321Z,54.69
2017-08-20T07:43:25.764Z,54.59
2017-08-20T07:44:06.218Z,54.11
2017-08-20T07:44:46.678Z,54.39
2017-08-20T07:45:27.135Z,54.49
2017-08-20T07:46:07.587Z,54.3
2017-08-20T07:46:48.044Z,54.21
2017-08-20T07:47:28.495Z,54.11
2017-08-20T07:48:08.946Z,54.21
2017-08-20T07:48:49.403Z,54.13
2017-08-20T07:49:29.860Z,54.21
2017-08-20T07:50:10.313Z,54.3
2017-08-20T07:50:50.776Z,54.43
2017-08-20T07:51:31.222Z,54.23
2017-08-20T07:52:11.673Z,53.72
2017-08-20T07:52:52.134Z,53.85
2017-08-20T07:53:32.589Z,53.72
2017-08-20T07:54:13.209Z,53.65
2017-08-20T07:54:53.644Z,53.85
2017-08-20T07:55:34.104Z,53.94
2017-08-20T07:56:14.561Z,53.55
2017-08-20T07:56:55.022Z,53.55
2017-08-20T07:57:35.466Z,53.36
2017-08-20T07:58:15.921Z,53.36
2017-08-20T07:58:56.374Z,53.17
2017-08-20T07:59:36.822Z,53.17
2017-08-20T08:00:17.273Z,52.87
2017-08-20T08:00:57.712Z,53.26
2017-08-20T08:01:38.165Z,52.87
2017-08-20T08:02:18.619Z,53.45
2017-08-20T08:02:59.059Z,53.36
2017-08-20T08:03:39.511Z,52.87
2017-08-20T08:04:19.964Z,52.78
2017-08-20T08:05:00.414Z,52.78
2017-08-20T08:05:40.861Z,52.87
2017-08-20T08:06:21.345Z,52.97
2017-08-20T08:07:01.827Z,52.9
2017-08-20T08:07:42.262Z,52.87
2017-08-20T08:08:22.714Z,52.71
2017-08-20T08:09:03.163Z,52.32
2017-08-20T08:09:43.614Z,52.71
2017-08-20T08:10:24.072Z,52.42
2017-08-20T08:11:04.535Z,52.61
2017-08-20T08:11:44.990Z,52.71
2017-08-20T08:12:25.431Z,52.22
2017-08-20T08:13:05.878Z,52.42
2017-08-20T08:13:46.340Z,52.42
2017-08-20T08:14:26.782Z,52.42
2017-08-20T08:15:07.243Z,52.51
2017-08-20T08:15:47.706Z,52.61
2017-08-20T08:16:28.158Z,52.71
2017-08-20T08:17:08.609Z,52.22
2017-08-20T08:17:49.097Z,52.32
2017-08-20T08:18:29.625Z,52.22
2017-08-20T08:19:10.086Z,52.32
2017-08-20T08:19:50.555Z,52.51
2017-08-20T08:20:31.023Z,52.51
2017-08-20T08:21:11.444Z,51.96
2017-08-20T08:21:52.595Z,52.22
2017-08-20T08:22:33.045Z,51.76
2017-08-20T08:23:13.499Z,51.57
2017-08-20T08:23:53.958Z,51.86
2017-08-20T08:24:34.404Z,51.96
2017-08-20T08:25:14.843Z,51.93
2017-08-20T08:25:55.305Z,51.84
2017-08-20T08:26:35.755Z,51.96
2017-08-20T08:27:16.215Z,51.47
2017-08-20T08:27:56.670Z,51.57
2017-08-20T08:28:37.129Z,51.86
2017-08-20T08:29:17.581Z,51.76
2017-08-20T08:29:58.033Z,51.76
2017-08-20T08:30:38.481Z,51.57
2017-08-20T08:31:18.979Z,51.47
2017-08-20T08:31:59.425Z,51.28
2017-08-20T08:32:39.877Z,51.57
2017-08-20T08:33:20.324Z,51.67
2017-08-20T08:34:00.781Z,51.76
2017-08-20T08:34:41.229Z,51.67
2017-08-20T08:35:21.679Z,51.47
2017-08-20T08:36:02.131Z,51.47
2017-08-20T08:36:43.308Z,51.28
2017-08-20T08:37:23.743Z,51.18
2017-08-20T08:38:04.210Z,51.09
2017-08-20T08:38:44.615Z,51.01
2017-08-20T08:39:25.048Z,51.01
2017-08-20T08:40:06.068Z,50.72
2017-08-20T08:40:46.774Z,50.82
2017-08-20T08:41:27.198Z,51.01
2017-08-20T08:43:45.048Z,51.11
2017-08-20T08:44:25.497Z,51.11
2017-08-20T08:45:05.951Z,51.21
2017-08-20T08:45:46.416Z,50.92
2017-08-20T08:46:26.888Z,50.62
2017-08-20T08:47:07.323Z,50.72
2017-08-20T08:47:48.377Z,50.82
2017-08-20T08:48:28.869Z,50.53
2017-08-20T08:49:09.812Z,50.72
2017-08-20T08:49:50.336Z,50.62